Marietta, Georgia
Current Conditions -  °F | °C
As of 8:58 PM on Monday 24 Nov 2014 (Local Time) from KMGE Reporting Station
Clear Clear  
Wind Chill: 55°   Ceiling: Unl
Heat Index: 55°   Visibility: 10mi
Dew Point: 46°   Wind: 7mph
Humidity: 70%   Direction: 270°W
Pressure: 29.96"   Gusts: NA
Location:  33.95°N, 84.54°W
Report Text: KMGE 250158Z 27006KT 10SM CLR 13/08 A2996 RMK AO2A SLP143 T01290075 $
Loading
Personal Weather Stations






























Interactive Weather Map New forecast layout! Learn more

10-Day Weather Forecast

Advertisements
Track Severe Weather on mobile